createdAt,value
2019-04-27T14:04:36.586Z,19.28
2019-04-27T14:05:08.307Z,19.64
2019-04-27T14:10:10.482Z,17.19
2019-04-27T14:10:42.470Z,17.45
2019-04-27T14:11:14.073Z,17.72
2019-04-27T14:11:48.140Z,17.98
2019-04-27T14:12:21.208Z,18.49
2019-04-27T14:12:53.958Z,19.67
2019-04-27T14:16:44.229Z,20.88
2019-04-27T14:17:15.360Z,21.11
2019-04-27T14:17:47.557Z,21.62
2019-04-27T14:20:16.124Z,20.89
2019-04-27T14:20:48.793Z,19.93
2019-04-27T14:21:21.203Z,19.93
2019-04-27T14:21:54.335Z,19.48
2019-04-27T14:22:28.076Z,19.21
2019-04-27T14:23:03.521Z,18.84
2019-04-27T14:23:35.067Z,18.55
2019-04-27T14:27:54.948Z,17.91
2019-04-27T14:31:58.712Z,15.91
2019-04-27T14:36:00.663Z,14.76
2019-04-27T14:40:03.338Z,14.20
2019-04-27T14:44:08.324Z,14.10
2019-04-27T14:48:12.955Z,14.47
2019-04-27T14:52:18.841Z,15.08
2019-04-27T14:56:25.157Z,15.70
2019-04-27T15:00:30.639Z,15.67
2019-04-27T15:04:39.317Z,15.81
2019-04-27T15:08:43.635Z,15.79
2019-04-27T15:12:48.312Z,15.63
2019-04-27T15:16:52.788Z,15.17
2019-04-27T15:20:58.465Z,15.17
2019-04-27T15:25:11.971Z,15.70
2019-04-27T15:29:11.966Z,15.44
2019-04-27T15:33:17.705Z,14.85
2019-04-27T15:37:22.347Z,14.78
2019-04-27T15:41:31.374Z,15.40
2019-04-27T15:45:35.212Z,15.77
2019-04-27T15:49:49.937Z,15.97
2019-04-27T15:53:52.534Z,15.47
2019-04-27T15:57:54.769Z,15.07
2019-04-27T16:02:05.470Z,14.67
2019-04-27T16:06:11.926Z,14.52
2019-04-27T16:10:17.710Z,14.88
2019-04-27T16:14:22.696Z,14.59
2019-04-27T16:18:29.220Z,14.56
2019-04-27T16:22:33.979Z,14.52
2019-04-27T16:26:41.851Z,14.57
2019-04-27T16:30:50.611Z,14.30
2019-04-27T16:34:51.897Z,13.95
2019-04-27T16:38:56.450Z,13.72
2019-04-27T16:43:00.737Z,13.49
2019-04-27T16:47:05.175Z,13.44
2019-04-27T16:51:10.727Z,13.28
2019-04-27T16:55:17.414Z,13.06
2019-04-27T16:59:39.203Z,12.74
2019-04-27T17:03:31.569Z,12.76
2019-04-27T17:07:37.517Z,12.89
2019-04-27T17:11:43.917Z,12.64
2019-04-27T17:15:46.235Z,12.44
2019-04-27T17:19:54.793Z,12.39
2019-04-27T17:24:02.972Z,12.47
2019-04-27T17:28:05.253Z,12.86
2019-04-27T17:32:09.960Z,13.18
2019-04-27T17:36:16.242Z,14.01
2019-04-27T17:40:20.514Z,14.76
2019-04-27T17:44:24.658Z,14.34
2019-04-27T17:48:28.958Z,13.81
2019-04-27T17:52:33.130Z,13.70
2019-04-27T17:56:48.305Z,13.32
2019-04-27T18:00:44.690Z,13.10
2019-04-27T18:04:49.082Z,12.99
2019-04-27T18:08:54.985Z,12.86
2019-04-27T18:12:59.040Z,12.56
2019-04-27T18:17:03.705Z,12.51
2019-04-27T18:21:09.235Z,12.39
2019-04-27T18:25:13.516Z,12.45
2019-04-27T18:29:18.525Z,12.58
2019-04-27T18:33:22.864Z,12.84
2019-04-27T18:37:28.281Z,12.79
2019-04-27T18:41:32.742Z,12.64
2019-04-27T18:45:38.053Z,12.29
2019-04-27T18:49:44.057Z,12.33
2019-04-27T18:53:49.872Z,11.90
2019-04-27T18:57:54.616Z,11.56
2019-04-27T19:01:58.748Z,11.40
2019-04-27T19:06:03.090Z,11.32
2019-04-27T19:10:08.965Z,11.38
2019-04-27T19:14:13.399Z,11.16
2019-04-27T19:18:18.807Z,11.08
2019-04-27T19:22:24.540Z,11.18
2019-04-27T19:26:28.986Z,11.20
2019-04-27T19:30:33.204Z,11.16
2019-04-27T19:34:38.837Z,11.14
2019-04-27T19:38:43.594Z,11.18
2019-04-27T19:42:48.750Z,11.09
2019-04-27T19:46:53.124Z,11.12
2019-04-27T19:51:00.207Z,11.14
2019-04-27T19:55:04.892Z,11.04
2019-04-27T19:59:09.303Z,11.08
2019-04-27T20:03:13.703Z,11.07
2019-04-27T20:07:18.453Z,11.04
2019-04-27T20:11:23.059Z,10.97
2019-04-27T20:15:27.946Z,11.04
2019-04-27T20:19:32.391Z,11.06
2019-04-27T20:23:37.509Z,11.12
2019-04-27T20:27:46.997Z,11.02
2019-04-27T20:31:48.210Z,11.07
2019-04-27T20:35:53.124Z,10.99
2019-04-27T20:39:57.782Z,11.05
2019-04-27T20:44:05.640Z,11.00
2019-04-27T20:48:11.201Z,10.90
2019-04-27T20:52:16.071Z,10.89
2019-04-27T20:56:20.187Z,10.93
2019-04-27T21:00:24.554Z,10.81
2019-04-27T21:04:30.828Z,10.77
2019-04-27T21:08:34.655Z,10.73
2019-04-27T21:12:37.152Z,10.76
2019-04-27T21:16:39.010Z,10.75
2019-04-27T21:20:41.281Z,10.66
2019-04-27T21:24:43.589Z,10.78
2019-04-27T21:28:45.727Z,10.72
2019-04-27T21:32:47.324Z,10.63
2019-04-27T21:36:50.925Z,10.66
2019-04-27T21:40:52.830Z,10.68
2019-04-27T21:44:54.756Z,10.58
2019-04-27T21:48:56.724Z,10.50
2019-04-27T21:52:58.508Z,10.54
2019-04-27T21:57:00.724Z,10.56
2019-04-27T22:01:02.725Z,10.59
2019-04-27T22:05:04.479Z,10.56
2019-04-27T22:09:10.673Z,10.64
2019-04-27T22:13:12.404Z,10.62
2019-04-27T22:17:14.036Z,10.60
2019-04-27T22:21:15.708Z,10.60
2019-04-27T22:25:17.436Z,10.55
2019-04-27T22:29:19.049Z,10.55
2019-04-27T22:33:21.485Z,10.51
2019-04-27T22:37:23.475Z,10.62
2019-04-27T22:41:25.209Z,10.58
2019-04-27T22:45:27.050Z,10.53
2019-04-27T22:49:28.747Z,10.55
2019-04-27T22:53:32.428Z,10.55
2019-04-27T22:57:34.072Z,10.65
2019-04-27T23:01:35.640Z,10.59
2019-04-27T23:05:37.316Z,10.70
2019-04-27T23:09:40.778Z,10.58
2019-04-27T23:13:44.436Z,10.57
2019-04-27T23:17:46.305Z,10.55
2019-04-27T23:21:48.013Z,10.63
2019-04-27T23:25:51.341Z,10.46
2019-04-27T23:29:53.133Z,10.47
2019-04-27T23:33:54.707Z,10.51
2019-04-27T23:37:56.858Z,10.46
2019-04-27T23:41:58.583Z,10.44
2019-04-27T23:46:01.579Z,10.41
2019-04-27T23:50:03.781Z,10.35
2019-04-27T23:54:05.376Z,10.29
2019-04-27T23:58:06.941Z,10.40
